Time;durP1;ratioP1;P1;durP2;ratioP2;P2;SDS_P1;SDS_P2;PMS_P1;PMS_P2;Temp;Humidity;BMP_temperature;BMP_pressure;BME280_temperature;BME280_humidity;BME280_pressure;Samples;Min_cycle;Max_cycle;Signal;HPM_P1;HPM_P2
2022/08/23 00:01:13;;;;;;;0.53;0.53;;;;;;;;;;5110725;27;20221;-59
2022/08/23 00:04:03;;;;;;;0.60;0.60;;;;;;;;;;5113307;27;20813;-58
2022/08/23 00:06:52;;;;;;;0.73;0.60;;;;;;;;;;5087263;28;20231;-58
2022/08/23 00:09:39;;;;;;;0.47;0.47;;;;;;;;;;5086314;28;20196;-58
2022/08/23 00:12:26;;;;;;;0.40;0.40;;;;;;;;;;5099686;28;20215;-59
2022/08/23 00:15:17;;;;;;;0.60;0.60;;;;;;;;;;5097069;28;20256;-58
2022/08/23 00:18:04;;;;;;;0.60;0.60;;;;;;;;;;5097396;28;20197;-58
2022/08/23 00:20:51;;;;;;;0.60;0.60;;;;;;;;;;5089990;28;20342;-59
2022/08/23 00:23:38;;;;;;;0.73;0.50;;;;;;;;;;5096086;28;20213;-58
2022/08/23 00:26:25;;;;;;;0.40;0.40;;;;;;;;;;5091539;28;20210;-58
2022/08/23 00:29:13;;;;;;;0.67;0.60;;;;;;;;;;5099298;28;20212;-58
2022/08/23 00:32:02;;;;;;;0.57;0.37;;;;;;;;;;5092740;28;20678;-59
2022/08/23 00:34:49;;;;;;;0.50;0.50;;;;;;;;;;5099692;28;20206;-58
2022/08/23 00:37:37;;;;;;;0.70;0.70;;;;;;;;;;5096232;28;20211;-58
2022/08/23 00:40:24;;;;;;;0.50;0.50;;;;;;;;;;5100435;28;20221;-60
2022/08/23 00:49:36;;;;;;;0.50;0.50;;;;;;;;;;5092058;28;20191;-58
2022/08/23 00:52:29;;;;;;;0.60;0.60;;;;;;;;;;5089720;28;20199;-59
2022/08/23 00:55:17;;;;;;;0.50;0.50;;;;;;;;;;5093992;28;20234;-59
2022/08/23 00:58:04;;;;;;;0.50;0.50;;;;;;;;;;5100728;28;20260;-58
2022/08/23 01:00:53;;;;;;;0.60;0.60;;;;;;;;;;5091289;28;20227;-59
2022/08/23 01:03:42;;;;;;;0.43;0.43;;;;;;;;;;5099232;28;20210;-58
2022/08/23 01:06:34;;;;;;;0.40;0.40;;;;;;;;;;5116701;27;20234;-58
2022/08/23 01:09:22;;;;;;;0.67;0.50;;;;;;;;;;5114359;27;20834;-58
2022/08/23 01:12:15;;;;;;;0.50;0.50;;;;;;;;;;5116374;27;20221;-58
2022/08/23 01:15:09;;;;;;;0.50;0.50;;;;;;;;;;5118131;27;20259;-59
2022/08/23 01:18:01;;;;;;;0.70;0.60;;;;;;;;;;5119614;27;20268;-58
2022/08/23 01:20:54;;;;;;;1.10;0.60;;;;;;;;;;5116368;27;20236;-58
2022/08/23 01:23:45;;;;;;;0.50;0.50;;;;;;;;;;5122402;27;20194;-58
2022/08/23 01:26:34;;;;;;;0.67;0.57;;;;;;;;;;5102469;28;20239;-58
2022/08/23 01:29:21;;;;;;;0.40;0.40;;;;;;;;;;5107740;28;20194;-58
2022/08/23 01:32:09;;;;;;;0.80;0.60;;;;;;;;;;5107239;27;20693;-58
2022/08/23 01:34:56;;;;;;;0.47;0.47;;;;;;;;;;5117472;27;20210;-58
2022/08/23 01:37:44;;;;;;;0.87;0.53;;;;;;;;;;5102550;27;20290;-58
2022/08/23 01:40:33;;;;;;;0.60;0.60;;;;;;;;;;5119593;27;20221;-58
2022/08/23 01:43:21;;;;;;;0.70;0.57;;;;;;;;;;5113327;27;20210;-58
2022/08/23 01:46:11;;;;;;;0.50;0.50;;;;;;;;;;5113733;27;20728;-58
2022/08/23 01:48:58;;;;;;;0.43;0.43;;;;;;;;;;5109400;27;20203;-58
2022/08/23 01:51:46;;;;;;;0.50;0.50;;;;;;;;;;5120576;27;20231;-59
2022/08/23 01:54:33;;;;;;;0.53;0.53;;;;;;;;;;5101561;28;20201;-58
2022/08/23 01:57:21;;;;;;;0.50;0.50;;;;;;;;;;5119276;27;20661;-60
2022/08/23 02:00:10;;;;;;;0.60;0.60;;;;;;;;;;5103264;27;20231;-58
2022/08/23 02:02:57;;;;;;;0.70;0.50;;;;;;;;;;5119773;27;20220;-59
2022/08/23 02:05:44;;;;;;;0.60;0.60;;;;;;;;;;5099612;27;20230;-58
2022/08/23 02:11:38;;;;;;;0.43;0.43;;;;;;;;;;5115532;27;20287;-58
2022/08/23 02:14:26;;;;;;;0.50;0.40;;;;;;;;;;5101092;28;20591;-58
2022/08/23 02:17:14;;;;;;;0.67;0.40;;;;;;;;;;5107650;27;20210;-58
2022/08/23 02:20:03;;;;;;;0.50;0.50;;;;;;;;;;5106151;27;20292;-58
2022/08/23 02:22:50;;;;;;;0.60;0.60;;;;;;;;;;5117589;27;20197;-58
2022/08/23 02:25:39;;;;;;;0.60;0.60;;;;;;;;;;5102969;27;20207;-58
2022/08/23 02:28:26;;;;;;;0.40;0.40;;;;;;;;;;5114369;27;20650;-59
2022/08/23 02:31:14;;;;;;;0.30;0.30;;;;;;;;;;5114618;28;20201;-58
2022/08/23 02:34:01;;;;;;;0.77;0.40;;;;;;;;;;5116635;28;20202;-58
2022/08/23 02:36:48;;;;;;;1.30;0.40;;;;;;;;;;5097793;28;20209;-58
2022/08/23 02:39:36;;;;;;;0.43;0.43;;;;;;;;;;5118863;28;20628;-58
2022/08/23 02:42:23;;;;;;;0.40;0.40;;;;;;;;;;5108743;28;20286;-58
2022/08/23 02:45:11;;;;;;;0.53;0.53;;;;;;;;;;5115887;28;20239;-58
2022/08/23 02:48:00;;;;;;;0.90;0.57;;;;;;;;;;5102260;28;20203;-59
2022/08/23 02:50:47;;;;;;;0.40;0.40;;;;;;;;;;5113693;28;20235;-59
2022/08/23 02:53:34;;;;;;;0.40;0.40;;;;;;;;;;5099724;28;20785;-58
2022/08/23 02:56:22;;;;;;;0.50;0.50;;;;;;;;;;5122886;28;20297;-58
2022/08/23 02:59:08;;;;;;;0.70;0.70;;;;;;;;;;5104923;28;20212;-58
2022/08/23 03:01:56;;;;;;;0.40;0.40;;;;;;;;;;5119809;28;20232;-58
2022/08/23 03:04:44;;;;;;;0.30;0.30;;;;;;;;;;5112438;28;20244;-59
2022/08/23 03:07:31;;;;;;;0.40;0.40;;;;;;;;;;5117981;27;20293;-58
2022/08/23 03:10:18;;;;;;;0.50;0.50;;;;;;;;;;5117706;27;20286;-59
2022/08/23 03:13:05;;;;;;;0.93;0.50;;;;;;;;;;5120545;27;20212;-58
2022/08/23 03:15:52;;;;;;;0.50;0.50;;;;;;;;;;5105096;27;20669;-58
2022/08/23 03:18:40;;;;;;;0.70;0.57;;;;;;;;;;5119254;27;20205;-58
2022/08/23 03:21:30;;;;;;;0.50;0.50;;;;;;;;;;5106756;27;20238;-58
2022/08/23 03:24:16;;;;;;;0.30;0.30;;;;;;;;;;5112578;27;20283;-58
2022/08/23 03:27:05;;;;;;;0.63;0.63;;;;;;;;;;5111147;27;20212;-58
2022/08/23 03:29:52;;;;;;;0.40;0.40;;;;;;;;;;5111231;27;20214;-58
2022/08/23 03:32:38;;;;;;;0.40;0.40;;;;;;;;;;5111016;27;20559;-59
2022/08/23 03:35:26;;;;;;;0.40;0.40;;;;;;;;;;5119029;27;20213;-58
2022/08/23 03:38:15;;;;;;;1.57;0.50;;;;;;;;;;5113571;27;20217;-58
2022/08/23 03:41:02;;;;;;;0.60;0.60;;;;;;;;;;5115538;27;20377;-58
2022/08/23 03:43:49;;;;;;;0.83;0.50;;;;;;;;;;5116296;27;20247;-58
2022/08/23 03:46:37;;;;;;;0.50;0.50;;;;;;;;;;5108870;27;20686;-58
2022/08/23 03:49:24;;;;;;;0.60;0.60;;;;;;;;;;5115420;27;20213;-58
2022/08/23 03:52:12;;;;;;;0.53;0.53;;;;;;;;;;5108091;27;20244;-58
2022/08/23 03:55:00;;;;;;;0.50;0.50;;;;;;;;;;5120663;27;20298;-59
2022/08/23 03:57:47;;;;;;;0.50;0.50;;;;;;;;;;5102427;27;20221;-58
2022/08/23 04:00:34;;;;;;;0.50;0.50;;;;;;;;;;5112755;27;20225;-59
2022/08/23 04:03:21;;;;;;;0.43;0.40;;;;;;;;;;5112606;27;20210;-58
2022/08/23 04:06:09;;;;;;;0.67;0.50;;;;;;;;;;5114836;27;20252;-58
2022/08/23 04:08:56;;;;;;;1.17;0.60;;;;;;;;;;5112297;27;20207;-58
2022/08/23 04:11:45;;;;;;;0.50;0.50;;;;;;;;;;5123499;27;20288;-58
2022/08/23 04:14:32;;;;;;;0.33;0.33;;;;;;;;;;5108690;27;20588;-58
2022/08/23 04:17:20;;;;;;;0.40;0.30;;;;;;;;;;5117854;27;20329;-59
2022/08/23 04:20:08;;;;;;;0.50;0.50;;;;;;;;;;5104539;27;20683;-58
2022/08/23 04:22:56;;;;;;;0.43;0.43;;;;;;;;;;5120395;27;20565;-58
2022/08/23 04:25:44;;;;;;;0.30;0.30;;;;;;;;;;5111517;27;20227;-58
2022/08/23 04:28:33;;;;;;;0.40;0.40;;;;;;;;;;5117406;27;20566;-59
2022/08/23 04:31:21;;;;;;;0.40;0.40;;;;;;;;;;5100283;27;20483;-58
2022/08/23 04:34:08;;;;;;;0.40;0.40;;;;;;;;;;5115797;27;20202;-58
2022/08/23 04:36:55;;;;;;;0.53;0.53;;;;;;;;;;5101551;27;20212;-58
2022/08/23 04:42:47;;;;;;;0.43;0.43;;;;;;;;;;5107460;27;20250;-58
2022/08/23 04:45:37;;;;;;;0.50;0.50;;;;;;;;;;5114514;27;20216;-59
2022/08/23 04:48:24;;;;;;;0.50;0.50;;;;;;;;;;5115717;27;20325;-58
2022/08/23 04:51:11;;;;;;;0.50;0.50;;;;;;;;;;5117360;27;20235;-59
2022/08/23 04:53:58;;;;;;;0.93;0.70;;;;;;;;;;5112789;27;20214;-58
2022/08/23 04:56:46;;;;;;;0.53;0.50;;;;;;;;;;5113209;27;20216;-58
2022/08/23 04:59:33;;;;;;;0.50;0.50;;;;;;;;;;5115380;27;20203;-58
2022/08/23 05:02:21;;;;;;;0.57;0.57;;;;;;;;;;5114594;27;20218;-58
2022/08/23 05:05:10;;;;;;;0.60;0.40;;;;;;;;;;5115989;27;20240;-59
2022/08/23 05:07:57;;;;;;;0.90;0.57;;;;;;;;;;5107581;27;20243;-58
2022/08/23 05:10:44;;;;;;;1.40;0.43;;;;;;;;;;5117250;27;20272;-58
2022/08/23 05:13:31;;;;;;;0.40;0.40;;;;;;;;;;5113408;27;20210;-58
2022/08/23 05:16:18;;;;;;;0.40;0.40;;;;;;;;;;5104794;27;20673;-58
2022/08/23 05:19:06;;;;;;;0.40;0.40;;;;;;;;;;5111975;27;20223;-58
2022/08/23 05:21:53;;;;;;;0.37;0.37;;;;;;;;;;5118039;27;20227;-58
2022/08/23 05:24:40;;;;;;;0.60;0.40;;;;;;;;;;5101662;27;20208;-58
2022/08/23 05:27:27;;;;;;;0.67;0.60;;;;;;;;;;5114281;27;20208;-58
2022/08/23 05:30:15;;;;;;;0.60;0.50;;;;;;;;;;5111005;27;20230;-58
2022/08/23 05:33:02;;;;;;;0.47;0.47;;;;;;;;;;5121055;27;20229;-59
2022/08/23 05:35:50;;;;;;;0.32;0.32;;;;;;;;;;5105569;27;20675;-58
2022/08/23 05:38:38;;;;;;;0.40;0.40;;;;;;;;;;5117780;27;20206;-58
2022/08/23 05:41:25;;;;;;;0.50;0.50;;;;;;;;;;4896982;28;20237;-59
2022/08/23 05:44:13;;;;;;;0.63;0.63;;;;;;;;;;4899332;28;20212;-59
2022/08/23 05:47:00;;;;;;;0.30;0.30;;;;;;;;;;5055384;28;20205;-58
2022/08/23 05:49:47;;;;;;;0.40;0.40;;;;;;;;;;5060537;28;20259;-58
2022/08/23 05:52:35;;;;;;;0.47;0.47;;;;;;;;;;5067311;28;20232;-58
2022/08/23 05:55:22;;;;;;;0.77;0.50;;;;;;;;;;5082357;28;20216;-58
2022/08/23 05:58:09;;;;;;;0.60;0.60;;;;;;;;;;5075245;28;20223;-58
2022/08/23 06:00:56;;;;;;;0.65;0.52;;;;;;;;;;5077662;28;20638;-58
2022/08/23 06:03:43;;;;;;;0.43;0.43;;;;;;;;;;5081610;28;20226;-58
2022/08/23 06:06:31;;;;;;;1.38;0.57;;;;;;;;;;5080348;28;20247;-58
2022/08/23 06:09:19;;;;;;;0.40;0.40;;;;;;;;;;5078273;28;20351;-58
2022/08/23 06:12:06;;;;;;;0.68;0.57;;;;;;;;;;5082254;28;20205;-58
2022/08/23 06:14:53;;;;;;;0.70;0.68;;;;;;;;;;5077421;28;20210;-58
2022/08/23 06:17:40;;;;;;;0.50;0.50;;;;;;;;;;5079534;28;20221;-59
2022/08/23 06:20:27;;;;;;;0.50;0.50;;;;;;;;;;5087830;28;20209;-60
2022/08/23 06:23:14;;;;;;;0.30;0.30;;;;;;;;;;5078529;28;20241;-58
2022/08/23 06:26:10;;;;;;;0.45;0.40;;;;;;;;;;5075410;28;20600;-58
2022/08/23 06:28:59;;;;;;;0.50;0.50;;;;;;;;;;5081645;28;20288;-58
2022/08/23 06:31:48;;;;;;;0.47;0.47;;;;;;;;;;5080405;28;20199;-59
2022/08/23 06:34:37;;;;;;;0.40;0.40;;;;;;;;;;5081959;28;20221;-59
2022/08/23 06:37:24;;;;;;;0.40;0.40;;;;;;;;;;5074529;28;20206;-58
2022/08/23 06:40:11;;;;;;;0.65;0.65;;;;;;;;;;5080576;28;20206;-58
2022/08/23 06:43:00;;;;;;;1.92;0.50;;;;;;;;;;5084033;28;20223;-58
2022/08/23 06:45:46;;;;;;;0.30;0.30;;;;;;;;;;5083345;28;20370;-58
2022/08/23 06:48:33;;;;;;;0.60;0.60;;;;;;;;;;5085050;28;20213;-58
2022/08/23 06:51:23;;;;;;;0.68;0.40;;;;;;;;;;5088230;28;20764;-58
2022/08/23 06:54:12;;;;;;;0.60;0.60;;;;;;;;;;5078810;28;20214;-58
2022/08/23 06:57:00;;;;;;;0.55;0.55;;;;;;;;;;5066734;28;20289;-58
2022/08/23 06:59:49;;;;;;;0.73;0.68;;;;;;;;;;5087880;28;20222;-58
2022/08/23 07:02:36;;;;;;;0.52;0.52;;;;;;;;;;5080578;28;20251;-59
2022/08/23 07:05:23;;;;;;;0.50;0.50;;;;;;;;;;5081422;28;20467;-60
2022/08/23 07:08:10;;;;;;;0.40;0.40;;;;;;;;;;5086022;28;20628;-60
2022/08/23 07:10:57;;;;;;;0.30;0.30;;;;;;;;;;5082732;28;20211;-59
2022/08/23 07:13:45;;;;;;;0.47;0.47;;;;;;;;;;5081112;28;20214;-59
2022/08/23 07:16:36;;;;;;;0.55;0.50;;;;;;;;;;5080878;28;20321;-59
2022/08/23 07:19:26;;;;;;;0.50;0.50;;;;;;;;;;5081309;28;20237;-59
2022/08/23 07:22:13;;;;;;;0.43;0.43;;;;;;;;;;5080716;28;20720;-59
2022/08/23 07:25:00;;;;;;;0.63;0.40;;;;;;;;;;5082084;28;20206;-59
2022/08/23 07:27:47;;;;;;;0.52;0.52;;;;;;;;;;5087562;28;20199;-57
2022/08/23 07:30:34;;;;;;;0.40;0.40;;;;;;;;;;5090500;28;20271;-57
2022/08/23 07:33:23;;;;;;;0.30;0.30;;;;;;;;;;5085916;28;20222;-57
2022/08/23 07:36:13;;;;;;;0.60;0.60;;;;;;;;;;5083902;28;20662;-59
2022/08/23 07:39:01;;;;;;;0.28;0.28;;;;;;;;;;5084284;28;20295;-57
2022/08/23 07:41:48;;;;;;;0.65;0.38;;;;;;;;;;5080094;28;20682;-57
2022/08/23 07:44:35;;;;;;;0.30;0.30;;;;;;;;;;5083061;28;20211;-58
2022/08/23 07:47:22;;;;;;;0.30;0.30;;;;;;;;;;5080141;28;20202;-57
2022/08/23 07:50:10;;;;;;;0.40;0.40;;;;;;;;;;5083307;28;20214;-57
2022/08/23 07:52:57;;;;;;;0.40;0.40;;;;;;;;;;5083347;28;20224;-57
2022/08/23 07:55:44;;;;;;;0.38;0.30;;;;;;;;;;5083212;28;20667;-57
2022/08/23 07:58:32;;;;;;;0.30;0.30;;;;;;;;;;5086662;28;20211;-58
2022/08/23 08:01:22;;;;;;;0.40;0.40;;;;;;;;;;5085940;28;20257;-58
2022/08/23 08:04:12;;;;;;;0.47;0.47;;;;;;;;;;5083220;28;20670;-58
2022/08/23 08:07:01;;;;;;;0.40;0.40;;;;;;;;;;5080499;28;20235;-58
2022/08/23 08:09:48;;;;;;;0.40;0.40;;;;;;;;;;5086202;28;20212;-58
2022/08/23 08:12:35;;;;;;;0.55;0.38;;;;;;;;;;5084634;28;20732;-59
2022/08/23 08:15:22;;;;;;;0.40;0.40;;;;;;;;;;5079436;28;20210;-58
2022/08/23 08:18:10;;;;;;;0.50;0.50;;;;;;;;;;5081481;28;20203;-58
2022/08/23 08:20:57;;;;;;;0.30;0.30;;;;;;;;;;5078139;28;20561;-59
2022/08/23 08:23:46;;;;;;;0.40;0.40;;;;;;;;;;5086791;28;20307;-58
2022/08/23 08:26:33;;;;;;;0.40;0.40;;;;;;;;;;5078715;28;20198;-58
2022/08/23 08:29:20;;;;;;;0.40;0.40;;;;;;;;;;5079659;28;20203;-58
2022/08/23 08:32:08;;;;;;;0.40;0.40;;;;;;;;;;5083783;28;20280;-58
2022/08/23 08:34:55;;;;;;;0.35;0.30;;;;;;;;;;5081017;28;20238;-59
2022/08/23 08:37:42;;;;;;;0.32;0.32;;;;;;;;;;5083813;28;20683;-59
2022/08/23 08:40:38;;;;;;;0.65;0.55;;;;;;;;;;5083331;28;20666;-59
2022/08/23 08:43:34;;;;;;;0.43;0.40;;;;;;;;;;5081594;28;20724;-59
2022/08/23 08:46:24;;;;;;;0.50;0.40;;;;;;;;;;5078498;28;20581;-59
2022/08/23 08:49:16;;;;;;;0.50;0.50;;;;;;;;;;5080390;28;20240;-58
2022/08/23 08:52:17;;;;;;;0.47;0.43;;;;;;;;;;5079262;28;20199;-59
2022/08/23 08:55:09;;;;;;;0.40;0.40;;;;;;;;;;5080485;28;20752;-58
2022/08/23 08:57:58;;;;;;;0.40;0.40;;;;;;;;;;5083273;28;20207;-59
2022/08/23 09:00:45;;;;;;;0.50;0.50;;;;;;;;;;5080272;28;20634;-59
2022/08/23 09:03:35;;;;;;;0.65;0.40;;;;;;;;;;5077194;28;20229;-58
2022/08/23 09:06:27;;;;;;;0.50;0.50;;;;;;;;;;5080768;28;20705;-59
2022/08/23 09:09:26;;;;;;;0.30;0.25;;;;;;;;;;5080065;28;20287;-59
2022/08/23 09:12:25;;;;;;;0.40;0.40;;;;;;;;;;5086273;28;20337;-59
2022/08/23 09:15:22;;;;;;;0.70;0.43;;;;;;;;;;5083339;28;20255;-59
2022/08/23 09:18:12;;;;;;;0.38;0.35;;;;;;;;;;5077952;28;20290;-58
2022/08/23 09:21:00;;;;;;;0.60;0.43;;;;;;;;;;5080549;28;20651;-58
2022/08/23 09:23:49;;;;;;;0.40;0.40;;;;;;;;;;5085677;28;20241;-59
2022/08/23 09:26:37;;;;;;;0.50;0.50;;;;;;;;;;5084594;28;20206;-59
2022/08/23 09:29:28;;;;;;;0.35;0.35;;;;;;;;;;5082812;28;21201;-59
2022/08/23 09:32:31;;;;;;;0.50;0.50;;;;;;;;;;5083098;28;20285;-59
2022/08/23 09:35:20;;;;;;;0.32;0.32;;;;;;;;;;5075764;28;20300;-58
2022/08/23 09:38:18;;;;;;;0.50;0.50;;;;;;;;;;5082223;28;20293;-59
2022/08/23 09:41:19;;;;;;;0.82;0.50;;;;;;;;;;5077675;28;20247;-58
2022/08/23 09:44:08;;;;;;;0.50;0.50;;;;;;;;;;5082008;28;20685;-58
2022/08/23 09:47:06;;;;;;;0.40;0.40;;;;;;;;;;5082921;28;20267;-59
2022/08/23 09:49:55;;;;;;;0.40;0.40;;;;;;;;;;5076644;28;20211;-58
2022/08/23 09:52:42;;;;;;;0.40;0.40;;;;;;;;;;5079019;28;20202;-59
2022/08/23 09:55:34;;;;;;;0.43;0.43;;;;;;;;;;5082040;28;20233;-59
2022/08/23 09:58:28;;;;;;;0.20;0.20;;;;;;;;;;5078240;28;20241;-58
2022/08/23 10:01:20;;;;;;;0.43;0.32;;;;;;;;;;5076412;28;20287;-59
2022/08/23 10:04:11;;;;;;;0.40;0.40;;;;;;;;;;5085307;28;20213;-58
2022/08/23 10:06:59;;;;;;;0.30;0.30;;;;;;;;;;5077366;28;20612;-58
2022/08/23 10:09:46;;;;;;;0.30;0.30;;;;;;;;;;5082920;28;20662;-58
2022/08/23 10:12:33;;;;;;;0.45;0.45;;;;;;;;;;5084711;28;20202;-58
2022/08/23 10:15:25;;;;;;;0.30;0.30;;;;;;;;;;5059662;28;20286;-59
2022/08/23 10:18:23;;;;;;;0.50;0.30;;;;;;;;;;5079675;28;20282;-58
2022/08/23 10:21:17;;;;;;;0.43;0.43;;;;;;;;;;5080071;28;20217;-58
2022/08/23 10:24:21;;;;;;;0.52;0.50;;;;;;;;;;5087172;28;20282;-59
2022/08/23 10:30:36;;;;;;;0.52;0.52;;;;;;;;;;5080313;28;20233;-58
2022/08/23 10:33:31;;;;;;;0.40;0.40;;;;;;;;;;5079322;28;20191;-59
2022/08/23 10:36:23;;;;;;;0.40;0.40;;;;;;;;;;5077447;28;20250;-58
2022/08/23 10:39:20;;;;;;;0.30;0.30;;;;;;;;;;5085580;28;20359;-58
2022/08/23 10:42:16;;;;;;;0.63;0.45;;;;;;;;;;5078436;28;20208;-58
2022/08/23 10:45:12;;;;;;;0.52;0.40;;;;;;;;;;5076181;28;20201;-58
2022/08/23 10:48:27;;;;;;;0.50;0.43;;;;;;;;;;5080388;28;20217;-58
2022/08/23 10:51:17;;;;;;;0.43;0.40;;;;;;;;;;5082322;28;20620;-59
2022/08/23 10:54:11;;;;;;;0.40;0.40;;;;;;;;;;5080228;28;20274;-59
2022/08/23 10:57:00;;;;;;;0.55;0.30;;;;;;;;;;5076094;28;20220;-58
2022/08/23 10:59:49;;;;;;;0.30;0.30;;;;;;;;;;5080225;28;20214;-59
2022/08/23 11:02:43;;;;;;;0.47;0.45;;;;;;;;;;5077797;28;20268;-59
2022/08/23 11:05:34;;;;;;;0.40;0.40;;;;;;;;;;5081548;28;20325;-58
2022/08/23 11:08:33;;;;;;;0.60;0.30;;;;;;;;;;5079304;28;20325;-59
2022/08/23 11:11:42;;;;;;;0.50;0.50;;;;;;;;;;5060832;28;20341;-58
2022/08/23 11:14:37;;;;;;;0.60;0.50;;;;;;;;;;5057255;28;20585;-59
2022/08/23 11:17:28;;;;;;;0.40;0.40;;;;;;;;;;5075228;28;20214;-58
2022/08/23 11:20:54;;;;;;;0.50;0.50;;;;;;;;;;5080882;28;20207;-59
2022/08/23 11:23:52;;;;;;;0.35;0.35;;;;;;;;;;5081782;28;20573;-59
2022/08/23 11:27:02;;;;;;;0.40;0.40;;;;;;;;;;5084716;28;20213;-59
2022/08/23 11:29:51;;;;;;;0.50;0.50;;;;;;;;;;5085934;28;20285;-59
2022/08/23 11:32:44;;;;;;;0.50;0.50;;;;;;;;;;5083982;28;20709;-59
2022/08/23 11:35:39;;;;;;;0.35;0.35;;;;;;;;;;5085882;28;20199;-58
2022/08/23 11:39:01;;;;;;;0.52;0.52;;;;;;;;;;5082525;28;20225;-59
2022/08/23 11:42:08;;;;;;;0.40;0.40;;;;;;;;;;5081049;28;20210;-59
2022/08/23 11:44:57;;;;;;;0.40;0.40;;;;;;;;;;5077432;28;20683;-59
2022/08/23 11:47:44;;;;;;;0.30;0.30;;;;;;;;;;5083636;28;20210;-59
2022/08/23 11:50:41;;;;;;;0.40;0.40;;;;;;;;;;5080311;28;20209;-59
2022/08/23 11:53:43;;;;;;;0.40;0.40;;;;;;;;;;5082424;28;20267;-58
2022/08/23 11:56:42;;;;;;;0.45;0.45;;;;;;;;;;5086880;28;20240;-59
2022/08/23 11:59:43;;;;;;;0.65;0.40;;;;;;;;;;5083346;28;20207;-59
2022/08/23 12:02:40;;;;;;;0.50;0.50;;;;;;;;;;5083805;28;20285;-58
2022/08/23 12:05:54;;;;;;;0.30;0.30;;;;;;;;;;5083318;28;20287;-59
2022/08/23 12:08:54;;;;;;;0.45;0.45;;;;;;;;;;5076988;28;20694;-60
2022/08/23 12:12:10;;;;;;;0.30;0.30;;;;;;;;;;5077494;28;20207;-59
2022/08/23 12:15:00;;;;;;;0.43;0.43;;;;;;;;;;5085948;28;20206;-59
2022/08/23 12:18:13;;;;;;;0.40;0.40;;;;;;;;;;5078012;28;20210;-59
2022/08/23 12:21:01;;;;;;;0.38;0.38;;;;;;;;;;5080261;28;20283;-59
2022/08/23 12:23:52;;;;;;;0.90;0.32;;;;;;;;;;5075946;28;20273;-59
2022/08/23 12:26:48;;;;;;;0.52;0.52;;;;;;;;;;5083147;28;20217;-58
2022/08/23 12:29:48;;;;;;;0.40;0.40;;;;;;;;;;5081881;28;20207;-59
2022/08/23 12:32:48;;;;;;;0.38;0.32;;;;;;;;;;5084401;28;20217;-58
2022/08/23 12:35:42;;;;;;;0.40;0.40;;;;;;;;;;5066839;28;20211;-60
2022/08/23 12:38:38;;;;;;;0.40;0.40;;;;;;;;;;5062097;28;20235;-58
2022/08/23 12:41:28;;;;;;;0.45;0.45;;;;;;;;;;5061012;28;20269;-59
2022/08/23 12:44:18;;;;;;;0.40;0.40;;;;;;;;;;5059054;28;20602;-59
2022/08/23 12:47:14;;;;;;;0.50;0.50;;;;;;;;;;5063130;28;20214;-59
2022/08/23 12:50:08;;;;;;;0.82;0.52;;;;;;;;;;5057572;28;20238;-59
2022/08/23 12:52:59;;;;;;;0.40;0.40;;;;;;;;;;5064538;28;20214;-58
2022/08/23 12:55:51;;;;;;;0.30;0.30;;;;;;;;;;5084830;28;20207;-59
2022/08/23 12:58:40;;;;;;;0.45;0.30;;;;;;;;;;5083161;28;20214;-59
2022/08/23 13:01:30;;;;;;;0.63;0.47;;;;;;;;;;5080157;28;20244;-58
2022/08/23 13:04:27;;;;;;;0.50;0.50;;;;;;;;;;5083436;28;20353;-59
2022/08/23 13:07:21;;;;;;;1.08;0.60;;;;;;;;;;5085766;28;20202;-58
2022/08/23 13:10:11;;;;;;;0.47;0.47;;;;;;;;;;5079332;28;20328;-59
2022/08/23 13:12:58;;;;;;;0.50;0.50;;;;;;;;;;5083769;28;20254;-59
2022/08/23 13:15:49;;;;;;;0.57;0.57;;;;;;;;;;5082677;28;20209;-59
2022/08/23 13:18:42;;;;;;;0.30;0.30;;;;;;;;;;5081532;28;20211;-59
2022/08/23 13:21:30;;;;;;;0.47;0.47;;;;;;;;;;5080552;28;20214;-58
2022/08/23 13:24:32;;;;;;;0.55;0.55;;;;;;;;;;5078637;28;20226;-58
2022/08/23 13:27:25;;;;;;;0.47;0.35;;;;;;;;;;5085302;28;20680;-59
2022/08/23 13:30:21;;;;;;;0.82;0.55;;;;;;;;;;5077952;28;20211;-58
2022/08/23 13:33:20;;;;;;;0.40;0.40;;;;;;;;;;5081883;28;20211;-59
2022/08/23 13:36:12;;;;;;;0.43;0.43;;;;;;;;;;5080451;28;20317;-58
2022/08/23 13:39:06;;;;;;;0.40;0.40;;;;;;;;;;5084626;28;20209;-58
2022/08/23 13:41:54;;;;;;;0.30;0.30;;;;;;;;;;5079275;28;20230;-59
2022/08/23 13:44:43;;;;;;;0.30;0.30;;;;;;;;;;5076691;28;20707;-59
2022/08/23 13:47:30;;;;;;;0.38;0.30;;;;;;;;;;5081828;28;20261;-58
2022/08/23 13:50:22;;;;;;;0.50;0.40;;;;;;;;;;5078191;28;20213;-58
2022/08/23 13:53:09;;;;;;;0.38;0.38;;;;;;;;;;5083192;28;20215;-59
2022/08/23 13:55:58;;;;;;;1.30;0.38;;;;;;;;;;5080491;28;20238;-59
2022/08/23 13:58:53;;;;;;;0.50;0.50;;;;;;;;;;5083238;28;20209;-59
2022/08/23 14:01:42;;;;;;;0.38;0.38;;;;;;;;;;5071484;28;20294;-59
2022/08/23 14:04:29;;;;;;;0.40;0.40;;;;;;;;;;5081171;28;20261;-59
2022/08/23 14:07:17;;;;;;;0.50;0.50;;;;;;;;;;5076508;28;20218;-58
2022/08/23 14:10:04;;;;;;;0.30;0.30;;;;;;;;;;5082235;28;20217;-59
2022/08/23 14:12:54;;;;;;;0.40;0.40;;;;;;;;;;5083626;28;20207;-58
2022/08/23 14:15:43;;;;;;;0.40;0.40;;;;;;;;;;5081796;28;20290;-59
2022/08/23 14:18:32;;;;;;;0.50;0.50;;;;;;;;;;5078883;28;20272;-58
2022/08/23 14:21:18;;;;;;;0.85;0.68;;;;;;;;;;5082233;28;20217;-58
2022/08/23 14:24:06;;;;;;;0.32;0.32;;;;;;;;;;5080999;28;20222;-58
2022/08/23 14:26:53;;;;;;;0.55;0.55;;;;;;;;;;5077751;28;20697;-58
2022/08/23 14:29:40;;;;;;;0.50;0.50;;;;;;;;;;5078799;28;20210;-59
2022/08/23 14:32:27;;;;;;;0.77;0.68;;;;;;;;;;5080834;28;20203;-59
2022/08/23 14:35:15;;;;;;;0.60;0.60;;;;;;;;;;5078066;28;20286;-59
2022/08/23 14:38:03;;;;;;;0.40;0.40;;;;;;;;;;5076168;28;20283;-59
2022/08/23 14:40:54;;;;;;;0.43;0.43;;;;;;;;;;5082730;28;20224;-58
2022/08/23 14:43:41;;;;;;;0.32;0.32;;;;;;;;;;5082089;28;20227;-58
2022/08/23 14:46:28;;;;;;;0.38;0.38;;;;;;;;;;5081215;28;20213;-60
2022/08/23 14:49:16;;;;;;;0.57;0.57;;;;;;;;;;5072538;28;20341;-58
2022/08/23 14:52:05;;;;;;;0.50;0.50;;;;;;;;;;5078830;28;20215;-59
2022/08/23 14:54:52;;;;;;;0.45;0.40;;;;;;;;;;5076688;28;20199;-59
2022/08/23 14:57:39;;;;;;;0.50;0.50;;;;;;;;;;5083162;28;21243;-59
2022/08/23 15:00:26;;;;;;;0.50;0.50;;;;;;;;;;5076475;28;20217;-59
2022/08/23 15:03:18;;;;;;;0.30;0.30;;;;;;;;;;5088108;28;20695;-58
2022/08/23 15:06:06;;;;;;;0.60;0.60;;;;;;;;;;5077295;28;20234;-59
2022/08/23 15:08:54;;;;;;;1.08;0.50;;;;;;;;;;5086556;28;20210;-58
2022/08/23 15:11:41;;;;;;;0.82;0.70;;;;;;;;;;5088438;28;20284;-59
2022/08/23 15:14:28;;;;;;;0.47;0.47;;;;;;;;;;5083207;28;20778;-58
2022/08/23 15:17:15;;;;;;;0.40;0.40;;;;;;;;;;5081367;28;20211;-59
2022/08/23 15:20:02;;;;;;;0.60;0.43;;;;;;;;;;5084500;28;20556;-58
2022/08/23 15:22:49;;;;;;;0.30;0.30;;;;;;;;;;5085388;28;20203;-58
2022/08/23 15:25:40;;;;;;;0.50;0.50;;;;;;;;;;5086615;28;20206;-59
2022/08/23 15:28:27;;;;;;;0.57;0.57;;;;;;;;;;5086411;28;20348;-58
2022/08/23 15:31:15;;;;;;;0.63;0.50;;;;;;;;;;5083805;28;20203;-63
2022/08/23 15:34:02;;;;;;;0.40;0.40;;;;;;;;;;5080917;28;20211;-58
2022/08/23 15:36:49;;;;;;;0.43;0.40;;;;;;;;;;5081815;28;20233;-58
2022/08/23 15:39:36;;;;;;;0.50;0.50;;;;;;;;;;5086592;28;20238;-58
2022/08/23 15:42:24;;;;;;;0.70;0.70;;;;;;;;;;5082644;28;20210;-59
2022/08/23 15:45:12;;;;;;;0.45;0.30;;;;;;;;;;5080158;28;20308;-58
2022/08/23 15:48:00;;;;;;;0.68;0.68;;;;;;;;;;5086284;28;20210;-58
2022/08/23 15:50:47;;;;;;;0.50;0.50;;;;;;;;;;5084347;28;20207;-59
2022/08/23 15:53:34;;;;;;;0.30;0.30;;;;;;;;;;5080113;28;20210;-59
2022/08/23 15:56:24;;;;;;;0.60;0.60;;;;;;;;;;5078497;28;20194;-58
2022/08/23 15:59:15;;;;;;;0.80;0.50;;;;;;;;;;5083689;28;20220;-58
2022/08/23 16:02:02;;;;;;;0.40;0.40;;;;;;;;;;5079603;28;20209;-59
2022/08/23 16:04:49;;;;;;;0.50;0.50;;;;;;;;;;5079003;28;20319;-59
2022/08/23 16:07:36;;;;;;;0.57;0.57;;;;;;;;;;5085157;28;20285;-58
2022/08/23 16:10:23;;;;;;;0.50;0.50;;;;;;;;;;5079276;28;20588;-58
2022/08/23 16:13:10;;;;;;;0.50;0.50;;;;;;;;;;5081879;28;20248;-58
2022/08/23 16:15:59;;;;;;;0.50;0.50;;;;;;;;;;5080967;28;20224;-58
2022/08/23 16:18:46;;;;;;;0.60;0.60;;;;;;;;;;5087629;28;20616;-58
2022/08/23 16:21:34;;;;;;;0.70;0.70;;;;;;;;;;5079732;28;20219;-59
2022/08/23 16:24:22;;;;;;;0.43;0.43;;;;;;;;;;5081592;28;20301;-58
2022/08/23 16:27:09;;;;;;;0.50;0.50;;;;;;;;;;5081364;28;20213;-58
2022/08/23 16:29:56;;;;;;;0.50;0.50;;;;;;;;;;5083914;28;20225;-59
2022/08/23 16:32:45;;;;;;;0.50;0.50;;;;;;;;;;5081237;28;20217;-58
2022/08/23 16:35:32;;;;;;;0.40;0.40;;;;;;;;;;5082545;28;20460;-59
2022/08/23 16:38:19;;;;;;;0.40;0.40;;;;;;;;;;5088641;28;20819;-58
2022/08/23 16:41:07;;;;;;;0.50;0.50;;;;;;;;;;5080824;28;20277;-64
2022/08/23 16:43:54;;;;;;;0.50;0.50;;;;;;;;;;5076997;28;20265;-58
2022/08/23 16:46:42;;;;;;;0.50;0.50;;;;;;;;;;5081640;28;20653;-58
2022/08/23 16:49:32;;;;;;;0.40;0.40;;;;;;;;;;5090587;28;20202;-58
2022/08/23 16:52:19;;;;;;;0.57;0.57;;;;;;;;;;5082826;28;20282;-58
2022/08/23 16:55:09;;;;;;;0.40;0.40;;;;;;;;;;5081066;28;20657;-59
2022/08/23 16:57:57;;;;;;;0.45;0.45;;;;;;;;;;5084937;28;20210;-58
2022/08/23 17:00:44;;;;;;;0.50;0.50;;;;;;;;;;5074978;28;20208;-59
2022/08/23 17:03:31;;;;;;;0.65;0.65;;;;;;;;;;5085116;28;20252;-58
2022/08/23 17:06:19;;;;;;;0.50;0.50;;;;;;;;;;5082199;28;20230;-59
2022/08/23 17:09:06;;;;;;;0.52;0.52;;;;;;;;;;5082157;28;20202;-58
2022/08/23 17:11:54;;;;;;;0.40;0.40;;;;;;;;;;5077697;28;20251;-59
2022/08/23 17:14:41;;;;;;;0.50;0.50;;;;;;;;;;5081246;28;20218;-58